sensor_id;sensor_type;location;lat;lon;timestamp;pressure;altitude;pressure_sealevel;temperature;humidity
76128;BME280;64873;50.102;14.434;2023-04-07T00:01:02;99564.81;;;2.44;60.55
76128;BME280;64873;50.102;14.434;2023-04-07T00:03:27;99560.25;;;2.54;61.01
76128;BME280;64873;50.102;14.434;2023-04-07T00:05:53;99557.56;;;2.46;60.55
76128;BME280;64873;50.102;14.434;2023-04-07T00:08:18;99561.81;;;2.38;61.30
76128;BME280;64873;50.102;14.434;2023-04-07T00:10:43;99566.09;;;2.39;61.82
76128;BME280;64873;50.102;14.434;2023-04-07T00:13:09;99570.72;;;2.37;61.26
76128;BME280;64873;50.102;14.434;2023-04-07T00:15:35;99561.00;;;2.38;61.20
76128;BME280;64873;50.102;14.434;2023-04-07T00:18:00;99562.91;;;2.54;61.07
76128;BME280;64873;50.102;14.434;2023-04-07T00:20:25;99566.34;;;2.54;60.71
76128;BME280;64873;50.102;14.434;2023-04-07T00:22:51;99569.19;;;2.69;59.98
76128;BME280;64873;50.102;14.434;2023-04-07T00:25:16;99552.16;;;2.55;60.83
76128;BME280;64873;50.102;14.434;2023-04-07T00:27:42;99556.63;;;2.55;60.34
76128;BME280;64873;50.102;14.434;2023-04-07T00:30:07;99558.00;;;2.67;60.03
76128;BME280;64873;50.102;14.434;2023-04-07T00:32:33;99553.78;;;2.82;59.50
76128;BME280;64873;50.102;14.434;2023-04-07T00:34:58;99554.94;;;2.88;59.80
76128;BME280;64873;50.102;14.434;2023-04-07T00:37:24;99552.72;;;2.75;59.70
76128;BME280;64873;50.102;14.434;2023-04-07T00:39:52;99561.00;;;2.80;60.02
76128;BME280;64873;50.102;14.434;2023-04-07T00:42:18;99546.50;;;2.42;61.14
76128;BME280;64873;50.102;14.434;2023-04-07T00:44:43;99556.25;;;2.42;60.91
76128;BME280;64873;50.102;14.434;2023-04-07T00:47:09;99552.72;;;2.33;61.52
76128;BME280;64873;50.102;14.434;2023-04-07T00:49:36;99550.88;;;2.25;62.03
76128;BME280;64873;50.102;14.434;2023-04-07T00:52:03;99538.78;;;2.40;61.39
76128;BME280;64873;50.102;14.434;2023-04-07T00:54:30;99535.44;;;2.38;61.80
76128;BME280;64873;50.102;14.434;2023-04-07T00:56:55;99523.56;;;2.34;61.90
76128;BME280;64873;50.102;14.434;2023-04-07T00:59:22;99534.44;;;2.31;62.04
76128;BME280;64873;50.102;14.434;2023-04-07T01:02:00;99533.84;;;2.11;62.67
76128;BME280;64873;50.102;14.434;2023-04-07T01:04:57;99527.13;;;2.17;62.98
76128;BME280;64873;50.102;14.434;2023-04-07T01:10:08;99497.50;;;1.97;62.74
76128;BME280;64873;50.102;14.434;2023-04-07T01:12:49;99509.22;;;2.03;62.81
76128;BME280;64873;50.102;14.434;2023-04-07T01:15:20;99523.06;;;2.05;63.33
76128;BME280;64873;50.102;14.434;2023-04-07T01:17:51;99523.78;;;2.15;62.97
76128;BME280;64873;50.102;14.434;2023-04-07T01:20:20;99522.16;;;2.14;62.63
76128;BME280;64873;50.102;14.434;2023-04-07T01:22:53;99508.75;;;2.07;62.65
76128;BME280;64873;50.102;14.434;2023-04-07T01:25:26;99527.41;;;2.14;62.87
76128;BME280;64873;50.102;14.434;2023-04-07T01:30:30;99523.28;;;2.11;62.72
76128;BME280;64873;50.102;14.434;2023-04-07T01:32:58;99521.50;;;2.20;62.58
76128;BME280;64873;50.102;14.434;2023-04-07T01:35:28;99511.44;;;2.16;62.29
76128;BME280;64873;50.102;14.434;2023-04-07T01:37:55;99507.69;;;2.26;62.31
76128;BME280;64873;50.102;14.434;2023-04-07T01:40:23;99508.72;;;2.33;61.99
76128;BME280;64873;50.102;14.434;2023-04-07T01:42:50;99510.66;;;2.23;62.42
76128;BME280;64873;50.102;14.434;2023-04-07T01:45:17;99513.69;;;2.36;61.73
76128;BME280;64873;50.102;14.434;2023-04-07T01:47:43;99509.72;;;2.32;62.08
76128;BME280;64873;50.102;14.434;2023-04-07T01:50:10;99509.81;;;2.23;62.14
76128;BME280;64873;50.102;14.434;2023-04-07T01:52:37;99512.31;;;2.24;61.84
76128;BME280;64873;50.102;14.434;2023-04-07T01:55:03;99503.38;;;2.17;62.05
76128;BME280;64873;50.102;14.434;2023-04-07T01:57:29;99509.31;;;2.19;62.19
76128;BME280;64873;50.102;14.434;2023-04-07T01:59:55;99493.50;;;2.19;62.34
76128;BME280;64873;50.102;14.434;2023-04-07T02:02:20;99491.88;;;2.26;61.80
76128;BME280;64873;50.102;14.434;2023-04-07T02:04:56;99495.47;;;2.17;61.72
76128;BME280;64873;50.102;14.434;2023-04-07T02:07:30;99498.78;;;2.19;62.46
76128;BME280;64873;50.102;14.434;2023-04-07T02:09:58;99487.91;;;2.22;61.94
76128;BME280;64873;50.102;14.434;2023-04-07T02:12:28;99491.84;;;2.18;62.07
76128;BME280;64873;50.102;14.434;2023-04-07T02:14:56;99498.06;;;2.09;62.65
76128;BME280;64873;50.102;14.434;2023-04-07T02:17:23;99484.59;;;2.12;62.32
76128;BME280;64873;50.102;14.434;2023-04-07T02:19:50;99498.34;;;2.32;62.46
76128;BME280;64873;50.102;14.434;2023-04-07T02:22:17;99494.75;;;2.41;61.94
76128;BME280;64873;50.102;14.434;2023-04-07T02:24:42;99481.69;;;2.31;62.73
76128;BME280;64873;50.102;14.434;2023-04-07T02:27:08;99479.34;;;2.20;62.69
76128;BME280;64873;50.102;14.434;2023-04-07T02:29:33;99486.41;;;2.20;62.99
76128;BME280;64873;50.102;14.434;2023-04-07T02:31:59;99487.97;;;2.30;62.87
76128;BME280;64873;50.102;14.434;2023-04-07T02:34:25;99484.78;;;2.27;62.76
76128;BME280;64873;50.102;14.434;2023-04-07T02:36:50;99491.59;;;2.37;62.56
76128;BME280;64873;50.102;14.434;2023-04-07T02:39:16;99482.00;;;2.28;62.49
76128;BME280;64873;50.102;14.434;2023-04-07T02:41:41;99476.41;;;2.31;62.35
76128;BME280;64873;50.102;14.434;2023-04-07T02:44:07;99474.25;;;2.27;62.78
76128;BME280;64873;50.102;14.434;2023-04-07T02:46:32;99467.16;;;2.19;62.80
76128;BME280;64873;50.102;14.434;2023-04-07T02:48:58;99473.31;;;2.36;62.27
76128;BME280;64873;50.102;14.434;2023-04-07T02:51:23;99469.34;;;2.40;62.44
76128;BME280;64873;50.102;14.434;2023-04-07T02:53:49;99474.50;;;2.50;62.38
76128;BME280;64873;50.102;14.434;2023-04-07T02:56:15;99466.41;;;2.35;62.23
76128;BME280;64873;50.102;14.434;2023-04-07T02:58:40;99467.84;;;2.29;62.21
76128;BME280;64873;50.102;14.434;2023-04-07T03:01:06;99474.06;;;2.20;62.20
76128;BME280;64873;50.102;14.434;2023-04-07T03:03:31;99460.72;;;2.22;62.46
76128;BME280;64873;50.102;14.434;2023-04-07T03:05:57;99457.59;;;2.18;62.09
76128;BME280;64873;50.102;14.434;2023-04-07T03:08:22;99470.81;;;2.34;62.39
76128;BME280;64873;50.102;14.434;2023-04-07T03:10:47;99468.88;;;2.36;61.27
76128;BME280;64873;50.102;14.434;2023-04-07T03:13:13;99454.50;;;2.31;61.08
76128;BME280;64873;50.102;14.434;2023-04-07T03:15:41;99474.50;;;2.42;61.34
76128;BME280;64873;50.102;14.434;2023-04-07T03:18:07;99435.56;;;2.35;61.44
76128;BME280;64873;50.102;14.434;2023-04-07T03:20:32;99457.59;;;2.26;61.67
76128;BME280;64873;50.102;14.434;2023-04-07T03:22:58;99457.31;;;2.29;62.22
76128;BME280;64873;50.102;14.434;2023-04-07T03:25:24;99462.53;;;2.21;62.26
76128;BME280;64873;50.102;14.434;2023-04-07T03:27:51;99457.78;;;2.33;61.82
76128;BME280;64873;50.102;14.434;2023-04-07T03:30:17;99452.72;;;2.39;61.50
76128;BME280;64873;50.102;14.434;2023-04-07T03:32:42;99448.28;;;2.48;61.62
76128;BME280;64873;50.102;14.434;2023-04-07T03:35:08;99456.34;;;2.38;61.53
76128;BME280;64873;50.102;14.434;2023-04-07T03:37:33;99457.97;;;2.31;61.44
76128;BME280;64873;50.102;14.434;2023-04-07T03:39:58;99450.69;;;2.25;61.65
76128;BME280;64873;50.102;14.434;2023-04-07T03:42:24;99452.63;;;2.15;62.39
76128;BME280;64873;50.102;14.434;2023-04-07T03:44:49;99449.22;;;2.31;62.03
76128;BME280;64873;50.102;14.434;2023-04-07T03:47:15;99454.94;;;2.18;62.63
76128;BME280;64873;50.102;14.434;2023-04-07T03:49:40;99447.88;;;2.27;62.46
76128;BME280;64873;50.102;14.434;2023-04-07T03:52:06;99450.69;;;2.25;62.21
76128;BME280;64873;50.102;14.434;2023-04-07T03:54:31;99443.94;;;2.31;62.23
76128;BME280;64873;50.102;14.434;2023-04-07T03:56:59;99457.53;;;2.10;62.38
76128;BME280;64873;50.102;14.434;2023-04-07T03:59:25;99449.72;;;2.34;62.18
76128;BME280;64873;50.102;14.434;2023-04-07T04:01:51;99449.97;;;2.15;62.74
76128;BME280;64873;50.102;14.434;2023-04-07T04:04:16;99449.69;;;2.18;63.15
76128;BME280;64873;50.102;14.434;2023-04-07T04:06:42;99442.94;;;2.24;63.25
76128;BME280;64873;50.102;14.434;2023-04-07T04:09:07;99448.00;;;2.59;62.13
76128;BME280;64873;50.102;14.434;2023-04-07T04:11:32;99451.06;;;2.38;62.26
76128;BME280;64873;50.102;14.434;2023-04-07T04:13:58;99444.44;;;2.34;62.22
76128;BME280;64873;50.102;14.434;2023-04-07T04:16:23;99451.41;;;2.44;61.87
76128;BME280;64873;50.102;14.434;2023-04-07T04:18:49;99451.41;;;2.52;61.67
76128;BME280;64873;50.102;14.434;2023-04-07T04:21:14;99455.06;;;2.51;61.32
76128;BME280;64873;50.102;14.434;2023-04-07T04:23:39;99451.88;;;2.39;61.84
76128;BME280;64873;50.102;14.434;2023-04-07T04:26:05;99458.38;;;2.61;61.40
76128;BME280;64873;50.102;14.434;2023-04-07T04:28:31;99433.13;;;2.42;61.92
76128;BME280;64873;50.102;14.434;2023-04-07T04:30:57;99458.34;;;2.45;61.87
76128;BME280;64873;50.102;14.434;2023-04-07T04:33:22;99438.69;;;2.31;62.77
76128;BME280;64873;50.102;14.434;2023-04-07T04:35:48;99457.59;;;2.18;62.61
76128;BME280;64873;50.102;14.434;2023-04-07T04:38:13;99468.50;;;2.23;62.68
76128;BME280;64873;50.102;14.434;2023-04-07T04:40:39;99460.66;;;2.48;62.00
76128;BME280;64873;50.102;14.434;2023-04-07T04:43:04;99461.59;;;2.30;62.30
76128;BME280;64873;50.102;14.434;2023-04-07T04:45:32;99460.22;;;2.18;62.54
76128;BME280;64873;50.102;14.434;2023-04-07T04:47:57;99444.91;;;2.22;62.20
76128;BME280;64873;50.102;14.434;2023-04-07T04:50:23;99455.41;;;2.13;62.81
76128;BME280;64873;50.102;14.434;2023-04-07T04:52:48;99463.22;;;2.23;62.24
76128;BME280;64873;50.102;14.434;2023-04-07T04:55:13;99456.31;;;2.30;61.93
76128;BME280;64873;50.102;14.434;2023-04-07T04:57:39;99457.50;;;2.36;61.41
76128;BME280;64873;50.102;14.434;2023-04-07T05:00:06;99459.31;;;2.44;61.00
76128;BME280;64873;50.102;14.434;2023-04-07T05:02:32;99451.78;;;2.57;60.99
76128;BME280;64873;50.102;14.434;2023-04-07T05:04:58;99452.06;;;2.46;60.64
76128;BME280;64873;50.102;14.434;2023-04-07T05:07:23;99465.59;;;2.51;60.96
76128;BME280;64873;50.102;14.434;2023-04-07T05:09:49;99462.84;;;2.68;60.68
76128;BME280;64873;50.102;14.434;2023-04-07T05:12:14;99463.00;;;2.67;60.54
76128;BME280;64873;50.102;14.434;2023-04-07T05:14:40;99467.00;;;2.79;60.07
76128;BME280;64873;50.102;14.434;2023-04-07T05:17:05;99453.13;;;2.69;60.47
76128;BME280;64873;50.102;14.434;2023-04-07T05:19:31;99459.09;;;2.79;60.61
76128;BME280;64873;50.102;14.434;2023-04-07T05:21:56;99458.09;;;2.80;60.54
76128;BME280;64873;50.102;14.434;2023-04-07T05:24:24;99455.47;;;2.97;60.02
76128;BME280;64873;50.102;14.434;2023-04-07T05:26:50;99446.06;;;2.86;60.28
76128;BME280;64873;50.102;14.434;2023-04-07T05:29:15;99437.31;;;2.85;60.03
76128;BME280;64873;50.102;14.434;2023-04-07T05:31:41;99458.78;;;2.99;59.96
76128;BME280;64873;50.102;14.434;2023-04-07T05:34:06;99448.22;;;2.99;60.14
76128;BME280;64873;50.102;14.434;2023-04-07T05:36:32;99455.50;;;3.21;59.93
76128;BME280;64873;50.102;14.434;2023-04-07T05:38:58;99449.06;;;3.15;59.85
76128;BME280;64873;50.102;14.434;2023-04-07T05:41:23;99450.88;;;3.23;59.83
76128;BME280;64873;50.102;14.434;2023-04-07T05:43:48;99414.25;;;3.20;59.02
76128;BME280;64873;50.102;14.434;2023-04-07T05:46:14;99446.59;;;3.46;59.30
76128;BME280;64873;50.102;14.434;2023-04-07T05:48:39;99423.16;;;3.35;59.29
76128;BME280;64873;50.102;14.434;2023-04-07T05:51:05;99437.47;;;3.57;58.32
76128;BME280;64873;50.102;14.434;2023-04-07T05:53:30;99436.00;;;3.55;57.93
76128;BME280;64873;50.102;14.434;2023-04-07T05:55:55;99438.47;;;3.56;57.81
76128;BME280;64873;50.102;14.434;2023-04-07T05:58:21;99432.72;;;3.53;57.72
76128;BME280;64873;50.102;14.434;2023-04-07T06:00:46;99440.56;;;3.69;57.38
76128;BME280;64873;50.102;14.434;2023-04-07T06:03:12;99448.34;;;3.62;57.80
76128;BME280;64873;50.102;14.434;2023-04-07T06:05:37;99439.28;;;3.57;57.82
76128;BME280;64873;50.102;14.434;2023-04-07T06:08:07;99445.69;;;3.79;57.38
76128;BME280;64873;50.102;14.434;2023-04-07T06:10:33;99440.91;;;3.74;57.09
76128;BME280;64873;50.102;14.434;2023-04-07T06:12:58;99435.25;;;3.93;57.00
76128;BME280;64873;50.102;14.434;2023-04-07T06:15:24;99446.19;;;3.82;57.01
76128;BME280;64873;50.102;14.434;2023-04-07T06:17:49;99442.13;;;4.11;55.98
76128;BME280;64873;50.102;14.434;2023-04-07T06:20:15;99442.47;;;4.08;56.02
76128;BME280;64873;50.102;14.434;2023-04-07T06:22:40;99435.44;;;4.31;55.65
76128;BME280;64873;50.102;14.434;2023-04-07T06:25:06;99433.09;;;4.36;55.64
76128;BME280;64873;50.102;14.434;2023-04-07T06:27:32;99437.94;;;4.55;54.97
76128;BME280;64873;50.102;14.434;2023-04-07T06:29:57;99435.22;;;4.72;54.34
76128;BME280;64873;50.102;14.434;2023-04-07T06:32:23;99432.31;;;4.59;54.71
76128;BME280;64873;50.102;14.434;2023-04-07T06:34:49;99434.78;;;4.60;54.45
76128;BME280;64873;50.102;14.434;2023-04-07T06:37:15;99433.59;;;4.63;55.19
76128;BME280;64873;50.102;14.434;2023-04-07T06:39:41;99430.56;;;4.74;54.42
76128;BME280;64873;50.102;14.434;2023-04-07T06:42:06;99427.28;;;4.72;54.75
76128;BME280;64873;50.102;14.434;2023-04-07T06:44:32;99435.75;;;4.90;54.22
76128;BME280;64873;50.102;14.434;2023-04-07T06:46:57;99438.88;;;4.94;53.90
76128;BME280;64873;50.102;14.434;2023-04-07T06:49:22;99431.38;;;4.97;53.73
76128;BME280;64873;50.102;14.434;2023-04-07T06:51:48;99430.56;;;5.20;53.05
76128;BME280;64873;50.102;14.434;2023-04-07T06:54:13;99434.22;;;5.19;52.48
76128;BME280;64873;50.102;14.434;2023-04-07T06:56:41;99436.34;;;5.23;52.65
76128;BME280;64873;50.102;14.434;2023-04-07T06:59:07;99440.03;;;5.37;51.98
76128;BME280;64873;50.102;14.434;2023-04-07T07:01:33;99425.91;;;5.59;51.00
76128;BME280;64873;50.102;14.434;2023-04-07T07:03:59;99413.38;;;5.53;51.10
76128;BME280;64873;50.102;14.434;2023-04-07T07:06:27;99421.91;;;5.64;51.32
76128;BME280;64873;50.102;14.434;2023-04-07T07:08:53;99425.03;;;5.44;52.00
76128;BME280;64873;50.102;14.434;2023-04-07T07:11:19;99425.91;;;5.59;51.58
76128;BME280;64873;50.102;14.434;2023-04-07T07:13:45;99424.34;;;5.65;50.54
76128;BME280;64873;50.102;14.434;2023-04-07T07:16:10;99425.81;;;5.53;50.48
76128;BME280;64873;50.102;14.434;2023-04-07T07:18:37;99429.81;;;5.49;49.42
76128;BME280;64873;50.102;14.434;2023-04-07T07:21:02;99427.25;;;5.41;50.11
76128;BME280;64873;50.102;14.434;2023-04-07T07:23:28;99418.31;;;5.86;49.58
76128;BME280;64873;50.102;14.434;2023-04-07T07:25:53;99422.28;;;6.20;48.92
76128;BME280;64873;50.102;14.434;2023-04-07T07:28:19;99422.28;;;6.34;49.13
76128;BME280;64873;50.102;14.434;2023-04-07T07:30:46;99424.19;;;6.40;48.57
76128;BME280;64873;50.102;14.434;2023-04-07T07:33:11;99420.31;;;6.43;49.04
76128;BME280;64873;50.102;14.434;2023-04-07T07:35:37;99422.63;;;6.67;47.96
76128;BME280;64873;50.102;14.434;2023-04-07T07:38:03;99405.47;;;6.49;47.26
76128;BME280;64873;50.102;14.434;2023-04-07T07:40:28;99429.63;;;6.54;47.91
76128;BME280;64873;50.102;14.434;2023-04-07T07:42:53;99432.63;;;6.65;46.90
76128;BME280;64873;50.102;14.434;2023-04-07T07:45:19;99429.50;;;6.62;47.17
76128;BME280;64873;50.102;14.434;2023-04-07T07:47:45;99427.31;;;6.65;48.07
76128;BME280;64873;50.102;14.434;2023-04-07T07:50:10;99439.22;;;6.91;46.77
76128;BME280;64873;50.102;14.434;2023-04-07T07:52:36;99429.34;;;6.63;47.29
76128;BME280;64873;50.102;14.434;2023-04-07T07:55:01;99434.88;;;6.83;47.42
76128;BME280;64873;50.102;14.434;2023-04-07T07:57:27;99425.63;;;7.01;46.89
76128;BME280;64873;50.102;14.434;2023-04-07T07:59:55;99420.63;;;7.12;46.68
76128;BME280;64873;50.102;14.434;2023-04-07T08:02:20;99423.56;;;7.17;45.55
76128;BME280;64873;50.102;14.434;2023-04-07T08:04:45;99425.59;;;7.43;45.11
76128;BME280;64873;50.102;14.434;2023-04-07T08:07:11;99436.69;;;7.47;45.05
76128;BME280;64873;50.102;14.434;2023-04-07T08:09:37;99438.91;;;7.71;44.14
76128;BME280;64873;50.102;14.434;2023-04-07T08:12:02;99436.28;;;7.50;44.38
76128;BME280;64873;50.102;14.434;2023-04-07T08:14:28;99437.59;;;7.61;43.08
76128;BME280;64873;50.102;14.434;2023-04-07T08:16:54;99441.28;;;7.60;42.14
76128;BME280;64873;50.102;14.434;2023-04-07T08:19:20;99435.63;;;7.69;41.14
76128;BME280;64873;50.102;14.434;2023-04-07T08:21:45;99425.63;;;7.50;41.53
76128;BME280;64873;50.102;14.434;2023-04-07T08:24:11;99433.03;;;7.55;41.49
76128;BME280;64873;50.102;14.434;2023-04-07T08:26:36;99428.94;;;7.52;41.04
76128;BME280;64873;50.102;14.434;2023-04-07T08:29:02;99436.78;;;7.60;40.75
76128;BME280;64873;50.102;14.434;2023-04-07T08:31:27;99424.63;;;7.79;40.58
76128;BME280;64873;50.102;14.434;2023-04-07T08:33:53;99431.53;;;7.73;40.74
76128;BME280;64873;50.102;14.434;2023-04-07T08:36:22;99437.84;;;7.66;40.59
76128;BME280;64873;50.102;14.434;2023-04-07T08:38:48;99427.72;;;7.55;40.59
76128;BME280;64873;50.102;14.434;2023-04-07T08:41:25;99427.69;;;7.48;40.68
76128;BME280;64873;50.102;14.434;2023-04-07T08:43:52;99435.03;;;7.74;41.06
76128;BME280;64873;50.102;14.434;2023-04-07T08:46:20;99440.94;;;7.69;41.09
76128;BME280;64873;50.102;14.434;2023-04-07T08:48:50;99436.22;;;7.99;40.75
76128;BME280;64873;50.102;14.434;2023-04-07T08:51:26;99432.00;;;8.18;40.70
76128;BME280;64873;50.102;14.434;2023-04-07T08:53:53;99436.25;;;8.06;40.24
76128;BME280;64873;50.102;14.434;2023-04-07T08:56:19;99429.28;;;8.05;39.43
76128;BME280;64873;50.102;14.434;2023-04-07T08:58:47;99427.00;;;8.02;40.04
76128;BME280;64873;50.102;14.434;2023-04-07T09:01:13;99426.06;;;8.16;39.58
76128;BME280;64873;50.102;14.434;2023-04-07T09:03:41;99430.13;;;8.12;39.71
76128;BME280;64873;50.102;14.434;2023-04-07T09:06:08;99430.56;;;8.09;40.12
76128;BME280;64873;50.102;14.434;2023-04-07T09:08:35;99434.34;;;8.35;39.78
76128;BME280;64873;50.102;14.434;2023-04-07T09:11:01;99412.22;;;8.34;39.76
76128;BME280;64873;50.102;14.434;2023-04-07T09:13:26;99429.97;;;8.20;39.83
76128;BME280;64873;50.102;14.434;2023-04-07T09:15:52;99432.22;;;8.17;40.24
76128;BME280;64873;50.102;14.434;2023-04-07T09:18:18;99422.16;;;8.12;40.08
76128;BME280;64873;50.102;14.434;2023-04-07T09:21:00;99427.25;;;8.07;39.62
76128;BME280;64873;50.102;14.434;2023-04-07T09:23:36;99426.41;;;8.00;39.65
76128;BME280;64873;50.102;14.434;2023-04-07T09:28:48;99431.69;;;7.93;40.09
76128;BME280;64873;50.102;14.434;2023-04-07T09:31:15;99415.56;;;8.08;39.58
76128;BME280;64873;50.102;14.434;2023-04-07T09:33:41;99425.31;;;8.29;39.38
76128;BME280;64873;50.102;14.434;2023-04-07T09:36:07;99430.06;;;8.34;39.26
76128;BME280;64873;50.102;14.434;2023-04-07T09:38:37;99409.28;;;8.16;39.85
76128;BME280;64873;50.102;14.434;2023-04-07T09:41:07;99422.41;;;8.24;39.83
76128;BME280;64873;50.102;14.434;2023-04-07T09:43:35;99410.50;;;8.13;39.41
76128;BME280;64873;50.102;14.434;2023-04-07T09:46:18;99419.47;;;8.47;39.44
76128;BME280;64873;50.102;14.434;2023-04-07T09:48:45;99415.53;;;8.97;38.45
76128;BME280;64873;50.102;14.434;2023-04-07T09:51:11;99416.13;;;8.86;38.30
76128;BME280;64873;50.102;14.434;2023-04-07T09:53:49;99411.00;;;8.98;37.58
76128;BME280;64873;50.102;14.434;2023-04-07T09:56:16;99423.47;;;8.91;38.49
76128;BME280;64873;50.102;14.434;2023-04-07T09:58:45;99415.72;;;9.02;37.57
76128;BME280;64873;50.102;14.434;2023-04-07T10:01:13;99407.09;;;9.14;37.34
76128;BME280;64873;50.102;14.434;2023-04-07T10:03:39;99410.78;;;8.79;37.28
76128;BME280;64873;50.102;14.434;2023-04-07T10:06:05;99402.97;;;8.78;37.67
76128;BME280;64873;50.102;14.434;2023-04-07T10:08:33;99408.75;;;9.08;37.16
76128;BME280;64873;50.102;14.434;2023-04-07T10:11:00;99391.13;;;9.07;37.52
76128;BME280;64873;50.102;14.434;2023-04-07T10:13:29;99412.44;;;8.94;37.45
76128;BME280;64873;50.102;14.434;2023-04-07T10:15:55;99411.22;;;9.16;37.54
76128;BME280;64873;50.102;14.434;2023-04-07T10:18:27;99400.78;;;9.21;36.56
76128;BME280;64873;50.102;14.434;2023-04-07T10:20:53;99413.25;;;8.94;37.52
76128;BME280;64873;50.102;14.434;2023-04-07T10:26:14;99388.19;;;8.69;37.75
76128;BME280;64873;50.102;14.434;2023-04-07T10:28:41;99404.06;;;8.36;38.07
76128;BME280;64873;50.102;14.434;2023-04-07T10:31:09;99401.47;;;8.14;38.03
76128;BME280;64873;50.102;14.434;2023-04-07T10:33:51;99405.56;;;8.10;39.11
76128;BME280;64873;50.102;14.434;2023-04-07T10:36:21;99399.94;;;8.33;38.78
76128;BME280;64873;50.102;14.434;2023-04-07T10:41:35;99393.56;;;8.27;38.51
76128;BME280;64873;50.102;14.434;2023-04-07T10:44:08;99398.97;;;7.99;38.26
76128;BME280;64873;50.102;14.434;2023-04-07T10:49:25;99391.72;;;8.21;37.70
76128;BME280;64873;50.102;14.434;2023-04-07T10:54:35;99390.66;;;8.70;37.45
76128;BME280;64873;50.102;14.434;2023-04-07T10:57:07;99391.91;;;8.74;37.47
76128;BME280;64873;50.102;14.434;2023-04-07T10:59:36;99388.59;;;8.72;36.49
76128;BME280;64873;50.102;14.434;2023-04-07T11:04:47;99380.81;;;8.77;36.26
76128;BME280;64873;50.102;14.434;2023-04-07T11:07:13;99381.59;;;8.51;36.31
76128;BME280;64873;50.102;14.434;2023-04-07T11:09:40;99391.84;;;8.61;36.44
76128;BME280;64873;50.102;14.434;2023-04-07T11:12:07;99390.00;;;8.55;36.17
76128;BME280;64873;50.102;14.434;2023-04-07T11:14:33;99373.97;;;8.42;36.79
76128;BME280;64873;50.102;14.434;2023-04-07T11:17:02;99387.31;;;8.55;36.94
76128;BME280;64873;50.102;14.434;2023-04-07T11:19:28;99383.47;;;8.64;37.07
76128;BME280;64873;50.102;14.434;2023-04-07T11:22:13;99379.63;;;8.80;36.55
76128;BME280;64873;50.102;14.434;2023-04-07T11:24:38;99381.66;;;8.85;36.90
76128;BME280;64873;50.102;14.434;2023-04-07T11:27:04;99382.50;;;8.92;36.55
76128;BME280;64873;50.102;14.434;2023-04-07T11:29:32;99376.31;;;8.85;36.52
76128;BME280;64873;50.102;14.434;2023-04-07T11:32:00;99375.06;;;8.67;36.94
76128;BME280;64873;50.102;14.434;2023-04-07T11:34:31;99370.97;;;8.71;37.26
76128;BME280;64873;50.102;14.434;2023-04-07T11:36:57;99365.66;;;8.85;37.55
76128;BME280;64873;50.102;14.434;2023-04-07T11:39:27;99369.78;;;8.94;37.14
76128;BME280;64873;50.102;14.434;2023-04-07T11:41:55;99370.22;;;9.17;37.22
76128;BME280;64873;50.102;14.434;2023-04-07T11:44:21;99377.38;;;9.23;37.04
76128;BME280;64873;50.102;14.434;2023-04-07T11:46:54;99386.41;;;9.29;36.90
76128;BME280;64873;50.102;14.434;2023-04-07T11:49:20;99381.22;;;8.68;37.77
76128;BME280;64873;50.102;14.434;2023-04-07T11:51:47;99372.00;;;8.70;38.16
76128;BME280;64873;50.102;14.434;2023-04-07T11:54:13;99369.78;;;9.07;37.63
76128;BME280;64873;50.102;14.434;2023-04-07T11:56:45;99357.88;;;9.29;37.33
76128;BME280;64873;50.102;14.434;2023-04-07T11:59:21;99379.44;;;9.34;37.61
76128;BME280;64873;50.102;14.434;2023-04-07T12:01:48;99375.13;;;9.33;37.66
76128;BME280;64873;50.102;14.434;2023-04-07T12:04:15;99360.97;;;9.13;37.99
76128;BME280;64873;50.102;14.434;2023-04-07T12:06:42;99368.72;;;9.68;37.08
76128;BME280;64873;50.102;14.434;2023-04-07T12:09:21;99358.63;;;9.76;36.50
76128;BME280;64873;50.102;14.434;2023-04-07T12:11:49;99361.72;;;9.67;37.00
76128;BME280;64873;50.102;14.434;2023-04-07T12:14:15;99367.31;;;9.52;37.15
76128;BME280;64873;50.102;14.434;2023-04-07T12:16:40;99373.88;;;9.56;37.07
76128;BME280;64873;50.102;14.434;2023-04-07T12:19:06;99356.81;;;9.70;37.16
76128;BME280;64873;50.102;14.434;2023-04-07T12:21:32;99362.31;;;9.82;36.83
76128;BME280;64873;50.102;14.434;2023-04-07T12:23:58;99350.81;;;9.88;36.73
76128;BME280;64873;50.102;14.434;2023-04-07T12:26:23;99350.03;;;9.74;36.87
76128;BME280;64873;50.102;14.434;2023-04-07T12:28:51;99350.91;;;9.35;37.77
76128;BME280;64873;50.102;14.434;2023-04-07T12:31:17;99348.41;;;9.60;37.54
76128;BME280;64873;50.102;14.434;2023-04-07T12:33:42;99356.03;;;9.50;37.79
76128;BME280;64873;50.102;14.434;2023-04-07T12:36:08;99357.47;;;9.39;38.42
76128;BME280;64873;50.102;14.434;2023-04-07T12:38:33;99350.94;;;9.28;38.50
76128;BME280;64873;50.102;14.434;2023-04-07T12:40:59;99360.34;;;9.44;37.76
76128;BME280;64873;50.102;14.434;2023-04-07T12:43:28;99360.13;;;9.46;38.27
76128;BME280;64873;50.102;14.434;2023-04-07T12:45:54;99346.19;;;9.30;38.49
76128;BME280;64873;50.102;14.434;2023-04-07T12:48:20;99350.72;;;9.30;38.43
76128;BME280;64873;50.102;14.434;2023-04-07T12:50:45;99350.50;;;9.31;38.90
76128;BME280;64873;50.102;14.434;2023-04-07T12:53:11;99353.78;;;9.47;38.56
76128;BME280;64873;50.102;14.434;2023-04-07T12:55:37;99359.06;;;9.73;38.10
76128;BME280;64873;50.102;14.434;2023-04-07T12:58:02;99358.72;;;9.23;38.87
76128;BME280;64873;50.102;14.434;2023-04-07T13:00:28;99353.75;;;9.60;38.87
76128;BME280;64873;50.102;14.434;2023-04-07T13:02:54;99357.00;;;9.75;38.44
76128;BME280;64873;50.102;14.434;2023-04-07T13:05:20;99352.53;;;9.56;38.33
76128;BME280;64873;50.102;14.434;2023-04-07T13:07:46;99359.69;;;9.55;38.44
76128;BME280;64873;50.102;14.434;2023-04-07T13:10:11;99351.06;;;9.73;38.06
76128;BME280;64873;50.102;14.434;2023-04-07T13:12:37;99351.72;;;9.62;37.96
76128;BME280;64873;50.102;14.434;2023-04-07T13:15:05;99351.28;;;9.65;38.19
76128;BME280;64873;50.102;14.434;2023-04-07T13:17:31;99341.41;;;9.72;38.34
76128;BME280;64873;50.102;14.434;2023-04-07T13:19:56;99348.44;;;9.53;38.72